createdAt,value
2018-12-16T00:00:23.332Z,81.30
2018-12-16T00:02:53.083Z,81.10
2018-12-16T00:05:23.366Z,81.30
2018-12-16T00:07:50.941Z,81.20
2018-12-16T00:10:18.494Z,81.10
2018-12-16T00:12:46.297Z,81.00
2018-12-16T00:15:14.364Z,80.80
2018-12-16T00:17:41.930Z,80.70
2018-12-16T00:20:09.662Z,80.70
2018-12-16T00:22:37.487Z,80.40
2018-12-16T00:25:06.513Z,80.40
2018-12-16T00:27:34.083Z,80.60
2018-12-16T00:30:01.786Z,80.50
2018-12-16T00:32:29.713Z,80.50
2018-12-16T00:34:57.234Z,80.60
2018-12-16T00:37:24.986Z,80.30
2018-12-16T00:39:52.531Z,80.40
2018-12-16T00:42:20.107Z,80.40
2018-12-16T00:44:47.617Z,80.40
2018-12-16T00:47:15.161Z,80.40
2018-12-16T00:49:42.761Z,80.40
2018-12-16T00:52:10.263Z,80.20
2018-12-16T00:54:38.044Z,80.40
2018-12-16T00:57:05.598Z,80.10
2018-12-16T00:59:33.249Z,80.00
2018-12-16T01:02:00.915Z,80.10
2018-12-16T01:04:28.812Z,80.10
2018-12-16T01:06:56.445Z,79.90
2018-12-16T01:09:24.107Z,79.60
2018-12-16T01:11:51.862Z,79.80
2018-12-16T01:14:19.588Z,80.00
2018-12-16T01:16:47.605Z,79.80
2018-12-16T01:19:15.284Z,79.80
2018-12-16T01:21:42.758Z,79.70
2018-12-16T01:24:10.299Z,79.50
2018-12-16T01:26:37.973Z,79.40
2018-12-16T01:29:05.562Z,79.40
2018-12-16T01:31:33.052Z,79.40
2018-12-16T01:34:00.648Z,79.50
2018-12-16T01:36:28.304Z,79.60
2018-12-16T01:38:55.855Z,79.50
2018-12-16T01:41:23.575Z,79.40
2018-12-16T01:43:51.226Z,79.40
2018-12-16T01:46:18.871Z,79.30
2018-12-16T01:48:46.370Z,79.40
2018-12-16T01:51:14.310Z,79.30
2018-12-16T01:53:42.329Z,79.20
2018-12-16T01:56:09.919Z,79.20
2018-12-16T01:58:37.679Z,79.20
2018-12-16T02:01:05.280Z,79.20
2018-12-16T02:03:33.077Z,79.20
2018-12-16T02:06:00.622Z,79.10
2018-12-16T02:08:28.156Z,79.10
2018-12-16T02:10:55.982Z,79.10
2018-12-16T02:13:23.605Z,79.00
2018-12-16T02:15:51.082Z,79.20
2018-12-16T02:18:18.751Z,79.40
2018-12-16T02:20:46.785Z,79.20
2018-12-16T02:23:14.387Z,79.30
2018-12-16T02:25:41.915Z,79.60
2018-12-16T02:28:09.641Z,79.30
2018-12-16T02:30:37.437Z,79.20
2018-12-16T02:33:05.070Z,79.10
2018-12-16T02:35:32.659Z,79.10
2018-12-16T02:38:00.277Z,79.00
2018-12-16T02:40:27.929Z,79.40
2018-12-16T02:42:55.701Z,79.20
2018-12-16T02:45:23.302Z,78.80
2018-12-16T02:47:51.537Z,79.20
2018-12-16T02:50:19.154Z,79.60
2018-12-16T02:52:47.858Z,79.20
2018-12-16T02:55:15.515Z,78.90
2018-12-16T02:57:43.060Z,79.20
2018-12-16T03:00:10.938Z,79.00
2018-12-16T03:02:40.390Z,79.20
2018-12-16T03:05:08.257Z,79.10
2018-12-16T03:07:35.805Z,79.00
2018-12-16T03:10:04.438Z,79.20
2018-12-16T03:12:32.232Z,79.00
2018-12-16T03:14:59.754Z,79.20
2018-12-16T03:17:27.300Z,79.20
2018-12-16T03:19:54.785Z,79.60
2018-12-16T03:22:22.354Z,79.60
2018-12-16T03:24:49.897Z,79.40
2018-12-16T03:27:17.507Z,79.40
2018-12-16T03:29:45.423Z,79.40
2018-12-16T03:32:12.979Z,79.50
2018-12-16T03:34:40.684Z,79.70
2018-12-16T03:37:08.420Z,78.90
2018-12-16T03:39:35.970Z,79.10
2018-12-16T03:42:05.827Z,79.30
2018-12-16T03:44:33.436Z,79.50
2018-12-16T03:47:00.988Z,79.30
2018-12-16T03:49:28.688Z,79.80
2018-12-16T03:51:56.344Z,81.20
2018-12-16T03:54:23.911Z,82.50
2018-12-16T03:56:51.764Z,84.40
2018-12-16T03:59:19.685Z,84.70
2018-12-16T04:01:53.220Z,85.90
2018-12-16T04:04:20.828Z,87.00
2018-12-16T04:06:48.414Z,87.80
2018-12-16T04:09:16.163Z,88.00
2018-12-16T04:11:43.753Z,88.40
2018-12-16T04:14:11.421Z,88.80
2018-12-16T04:16:40.961Z,89.30
2018-12-16T04:19:08.557Z,89.40
2018-12-16T04:21:36.362Z,90.10
2018-12-16T04:24:03.886Z,90.40
2018-12-16T04:26:31.507Z,90.90
2018-12-16T04:28:59.222Z,91.40
2018-12-16T04:31:27.051Z,91.90
2018-12-16T04:33:54.560Z,92.10
2018-12-16T04:36:22.438Z,92.20
2018-12-16T04:38:50.157Z,92.40
2018-12-16T04:41:17.852Z,92.50
2018-12-16T04:43:45.633Z,92.10
2018-12-16T04:46:13.178Z,92.30
2018-12-16T04:48:40.825Z,92.40
2018-12-16T04:51:08.439Z,92.90
2018-12-16T04:53:41.772Z,92.60
2018-12-16T04:56:09.342Z,92.80
2018-12-16T04:58:36.984Z,92.90
2018-12-16T05:01:04.695Z,93.00
2018-12-16T05:03:32.235Z,92.90
2018-12-16T05:05:59.783Z,92.90
2018-12-16T05:08:27.454Z,93.00
2018-12-16T05:10:55.131Z,93.10
2018-12-16T05:13:23.456Z,92.70
2018-12-16T05:15:51.034Z,93.00
2018-12-16T05:18:18.630Z,93.00
2018-12-16T05:20:46.171Z,93.00
2018-12-16T05:23:13.791Z,92.80
2018-12-16T05:25:41.278Z,93.00
2018-12-16T05:28:08.938Z,92.60
2018-12-16T05:30:36.515Z,92.90
2018-12-16T05:33:04.266Z,92.90
2018-12-16T05:35:31.813Z,92.70
2018-12-16T05:37:59.362Z,93.00
2018-12-16T05:40:26.910Z,93.20
2018-12-16T05:42:54.433Z,93.10
2018-12-16T05:45:22.175Z,93.20
2018-12-16T05:47:49.890Z,93.30
2018-12-16T05:50:17.654Z,93.30
2018-12-16T05:52:45.183Z,93.00
2018-12-16T05:55:12.738Z,93.30
2018-12-16T05:57:40.302Z,92.90
2018-12-16T06:00:08.268Z,92.70
2018-12-16T06:02:35.788Z,93.10
2018-12-16T06:05:03.779Z,93.00
2018-12-16T06:07:31.317Z,93.20
2018-12-16T06:09:58.966Z,93.10
2018-12-16T06:12:26.781Z,93.10
2018-12-16T06:14:54.340Z,93.00
2018-12-16T06:17:21.932Z,93.00
2018-12-16T06:19:49.433Z,93.10
2018-12-16T06:22:17.121Z,93.20
2018-12-16T06:24:44.855Z,93.30
2018-12-16T06:27:12.514Z,92.80
2018-12-16T06:29:41.366Z,92.80
2018-12-16T06:32:09.149Z,92.70
2018-12-16T06:34:36.659Z,92.70
2018-12-16T06:37:04.282Z,92.80
2018-12-16T06:39:31.840Z,92.40
2018-12-16T06:41:59.311Z,92.40
2018-12-16T06:44:26.889Z,92.10
2018-12-16T06:46:54.530Z,92.20
2018-12-16T06:49:22.086Z,92.40
2018-12-16T06:51:49.576Z,92.50
2018-12-16T06:54:17.203Z,92.70
2018-12-16T06:56:44.742Z,92.70
2018-12-16T06:59:12.326Z,92.50
2018-12-16T07:01:40.062Z,92.90
2018-12-16T07:04:08.729Z,93.10
2018-12-16T07:06:36.280Z,92.80
2018-12-16T07:09:05.789Z,92.80
2018-12-16T07:11:35.293Z,92.60
2018-12-16T07:14:02.997Z,92.80
2018-12-16T07:16:30.672Z,92.90
2018-12-16T07:18:58.197Z,92.90
2018-12-16T07:21:25.701Z,93.10
2018-12-16T07:23:53.462Z,93.00
2018-12-16T07:26:21.118Z,93.20
2018-12-16T07:28:48.670Z,93.00
2018-12-16T07:31:16.218Z,92.90
2018-12-16T07:33:44.603Z,93.20
2018-12-16T07:36:12.374Z,93.10
2018-12-16T07:38:40.124Z,93.10
2018-12-16T07:41:07.766Z,93.40
2018-12-16T07:43:35.417Z,93.60
2018-12-16T07:46:03.077Z,93.50
2018-12-16T07:48:31.385Z,93.50
2018-12-16T07:50:58.926Z,93.50
2018-12-16T07:53:26.619Z,93.70
2018-12-16T07:55:54.309Z,93.90
2018-12-16T07:58:21.956Z,93.90
2018-12-16T08:00:49.596Z,94.00
2018-12-16T08:03:17.180Z,94.00
2018-12-16T08:05:44.674Z,94.40
2018-12-16T08:08:12.624Z,94.30
2018-12-16T08:10:40.182Z,94.20
2018-12-16T08:13:07.732Z,94.50
2018-12-16T08:15:35.555Z,94.30
2018-12-16T08:18:03.335Z,94.40
2018-12-16T08:20:30.859Z,94.60
2018-12-16T08:22:58.408Z,94.50
2018-12-16T08:25:25.935Z,94.30
2018-12-16T08:27:53.522Z,94.50
2018-12-16T08:30:21.071Z,94.50
2018-12-16T08:32:48.592Z,94.70
2018-12-16T08:35:16.059Z,94.80
2018-12-16T08:37:43.626Z,94.50
2018-12-16T08:40:11.376Z,94.60
2018-12-16T08:42:38.895Z,94.60
2018-12-16T08:45:07.363Z,94.80
2018-12-16T08:47:34.865Z,94.90
2018-12-16T08:50:02.744Z,95.00
2018-12-16T08:52:30.412Z,95.00
2018-12-16T08:54:57.959Z,95.10
2018-12-16T08:57:25.512Z,94.90
2018-12-16T08:59:53.053Z,94.90
2018-12-16T09:02:20.553Z,94.80
2018-12-16T09:04:48.150Z,95.10
2018-12-16T09:07:16.674Z,95.00
2018-12-16T09:09:44.163Z,94.80
2018-12-16T09:12:11.868Z,95.00
2018-12-16T09:14:39.661Z,95.10
2018-12-16T09:17:07.398Z,94.60
2018-12-16T09:19:34.929Z,94.50
2018-12-16T09:22:02.719Z,94.40
2018-12-16T09:24:37.025Z,94.10
2018-12-16T09:27:00.274Z,93.70
2018-12-16T09:29:27.825Z,94.00
2018-12-16T09:31:55.438Z,94.00
2018-12-16T09:34:23.082Z,94.00
2018-12-16T09:36:50.799Z,94.00
2018-12-16T09:39:18.805Z,93.90
2018-12-16T09:41:46.438Z,93.90
2018-12-16T09:44:13.934Z,93.60
2018-12-16T09:46:41.573Z,93.70
2018-12-16T09:49:09.093Z,93.60
2018-12-16T09:51:36.782Z,93.50
2018-12-16T09:54:04.354Z,93.00
2018-12-16T09:56:31.883Z,92.80
2018-12-16T09:58:59.410Z,92.90
2018-12-16T10:01:26.926Z,92.80
2018-12-16T10:03:54.668Z,93.10
2018-12-16T10:06:22.279Z,93.00
2018-12-16T10:08:49.731Z,92.80
2018-12-16T10:11:17.337Z,93.00
2018-12-16T10:13:44.890Z,93.20
2018-12-16T10:16:12.607Z,92.90
2018-12-16T10:18:40.170Z,93.20
2018-12-16T10:21:07.774Z,92.90
2018-12-16T10:23:35.306Z,92.80
2018-12-16T10:26:02.809Z,92.60
2018-12-16T10:28:30.407Z,92.10
2018-12-16T10:30:58.121Z,91.90
2018-12-16T10:33:25.608Z,91.70
2018-12-16T10:35:53.094Z,91.70
2018-12-16T10:38:20.600Z,91.60
2018-12-16T10:40:49.203Z,91.40
2018-12-16T10:43:16.815Z,91.60
2018-12-16T10:45:44.445Z,91.90
2018-12-16T10:48:13.310Z,92.40
2018-12-16T10:50:41.206Z,91.80
2018-12-16T10:53:08.897Z,91.90
2018-12-16T10:55:36.737Z,92.80
2018-12-16T10:58:04.348Z,92.40
2018-12-16T11:00:37.842Z,92.60
2018-12-16T11:03:05.351Z,93.00
2018-12-16T11:05:33.451Z,93.20
2018-12-16T11:08:01.075Z,93.70
2018-12-16T11:10:29.061Z,93.50
2018-12-16T11:12:57.217Z,93.20
2018-12-16T11:15:25.008Z,93.10
2018-12-16T11:17:52.594Z,93.70
2018-12-16T11:20:20.100Z,93.70
2018-12-16T11:22:47.862Z,94.00
2018-12-16T11:25:16.887Z,94.40
2018-12-16T11:27:44.411Z,94.30
2018-12-16T11:30:12.423Z,94.40
2018-12-16T11:32:40.033Z,94.30
2018-12-16T11:35:07.770Z,94.10
2018-12-16T11:37:35.734Z,94.40
2018-12-16T11:40:04.227Z,94.60
2018-12-16T11:42:31.779Z,94.70
2018-12-16T11:44:59.410Z,94.10
2018-12-16T11:47:26.946Z,94.80
2018-12-16T11:49:54.665Z,94.30
2018-12-16T11:52:22.165Z,94.20
2018-12-16T11:54:49.802Z,94.20
2018-12-16T11:57:17.483Z,94.40
2018-12-16T11:59:45.081Z,94.20
2018-12-16T12:02:12.740Z,94.00
2018-12-16T12:04:43.010Z,93.80
2018-12-16T12:07:10.582Z,93.70
2018-12-16T12:09:38.071Z,93.30
2018-12-16T12:12:05.934Z,93.50
2018-12-16T12:14:33.669Z,93.40
2018-12-16T12:17:01.506Z,93.40
2018-12-16T12:19:38.278Z,93.30
2018-12-16T12:22:05.878Z,93.00
2018-12-16T12:24:33.482Z,93.20
2018-12-16T12:27:01.150Z,92.90
2018-12-16T12:29:28.659Z,92.80
2018-12-16T12:31:56.229Z,92.70
2018-12-16T12:34:23.802Z,92.70
2018-12-16T12:36:51.720Z,92.60
2018-12-16T12:39:19.282Z,92.50
2018-12-16T12:41:46.905Z,92.60
2018-12-16T12:44:14.674Z,92.50
2018-12-16T12:46:42.244Z,92.60
2018-12-16T12:49:09.783Z,92.70
2018-12-16T12:51:37.435Z,92.60
2018-12-16T12:54:06.609Z,92.70
2018-12-16T12:56:34.392Z,92.60
2018-12-16T12:59:02.037Z,92.70
2018-12-16T13:01:29.923Z,92.60
2018-12-16T13:03:57.739Z,92.60
2018-12-16T13:06:25.347Z,92.50
2018-12-16T13:08:52.920Z,92.60
2018-12-16T13:11:20.644Z,92.70
2018-12-16T13:13:48.224Z,92.60
2018-12-16T13:16:15.906Z,92.50
2018-12-16T13:18:43.404Z,92.60
2018-12-16T13:21:11.049Z,92.60
2018-12-16T13:23:38.753Z,92.50
2018-12-16T13:26:06.710Z,92.60
2018-12-16T13:28:34.279Z,92.50
2018-12-16T13:31:02.240Z,92.30
2018-12-16T13:33:29.873Z,92.10
2018-12-16T13:35:57.704Z,92.20
2018-12-16T13:38:25.449Z,92.00
2018-12-16T13:40:52.956Z,91.90
2018-12-16T13:43:20.530Z,91.70
2018-12-16T13:45:48.138Z,91.80
2018-12-16T13:48:15.669Z,91.70
2018-12-16T13:50:43.341Z,91.70
2018-12-16T13:53:11.213Z,91.80
2018-12-16T13:55:40.988Z,91.60
2018-12-16T13:58:08.481Z,91.70
2018-12-16T14:00:36.148Z,91.60
2018-12-16T14:03:03.858Z,91.80
2018-12-16T14:05:34.345Z,91.90
2018-12-16T14:08:01.942Z,91.60
2018-12-16T14:10:30.883Z,92.00
2018-12-16T14:15:32.855Z,91.90
2018-12-16T14:18:00.711Z,92.20
2018-12-16T14:20:28.269Z,92.20
2018-12-16T14:22:56.361Z,92.10
2018-12-16T14:25:24.121Z,92.20
2018-12-16T14:27:51.818Z,92.40
2018-12-16T14:30:19.601Z,92.50
2018-12-16T14:32:47.276Z,92.60
2018-12-16T14:35:15.724Z,92.80
2018-12-16T14:37:43.337Z,93.00
2018-12-16T14:40:11.376Z,93.10
2018-12-16T14:42:39.508Z,93.10
2018-12-16T14:45:08.764Z,93.20
2018-12-16T14:47:36.636Z,93.30
2018-12-16T14:50:05.539Z,93.30
2018-12-16T14:52:33.042Z,93.30
2018-12-16T14:55:00.762Z,93.40
2018-12-16T14:57:28.323Z,93.60
2018-12-16T14:59:56.102Z,93.70
2018-12-16T15:02:23.701Z,93.90
2018-12-16T15:04:51.204Z,93.80
2018-12-16T15:07:18.841Z,93.70
2018-12-16T15:09:46.566Z,93.90
2018-12-16T15:12:14.385Z,93.80
2018-12-16T15:14:42.011Z,94.10
2018-12-16T15:17:10.440Z,94.10
2018-12-16T15:19:38.100Z,93.90
2018-12-16T15:22:12.790Z,93.60
2018-12-16T15:24:40.371Z,93.80
2018-12-16T15:27:08.029Z,93.70
2018-12-16T15:29:35.673Z,93.60
2018-12-16T15:32:03.262Z,94.00
2018-12-16T15:34:30.798Z,94.00
2018-12-16T15:36:58.310Z,94.30
2018-12-16T15:39:25.953Z,94.70
2018-12-16T15:41:53.664Z,94.30
2018-12-16T15:44:21.278Z,94.60
2018-12-16T15:46:49.132Z,94.20
2018-12-16T15:49:17.025Z,94.40
2018-12-16T15:51:45.674Z,94.30
2018-12-16T15:54:13.383Z,94.30
2018-12-16T15:56:41.264Z,94.10
2018-12-16T15:59:09.210Z,94.80
2018-12-16T16:01:36.798Z,94.90
2018-12-16T16:04:04.375Z,95.10
2018-12-16T16:06:32.120Z,94.50
2018-12-16T16:08:59.693Z,94.50
2018-12-16T16:11:27.207Z,94.70
2018-12-16T16:13:54.702Z,94.70
2018-12-16T16:16:22.418Z,94.90
2018-12-16T16:18:50.292Z,94.60
2018-12-16T16:21:17.858Z,94.70
2018-12-16T16:23:45.392Z,95.00
2018-12-16T16:26:16.226Z,94.80
2018-12-16T16:28:42.683Z,94.40
2018-12-16T16:31:10.275Z,94.80
2018-12-16T16:33:38.209Z,95.00
2018-12-16T16:36:05.921Z,94.90
2018-12-16T16:38:33.742Z,94.90
2018-12-16T16:41:01.735Z,95.10
2018-12-16T16:43:30.273Z,95.20
2018-12-16T16:45:57.870Z,95.70
2018-12-16T16:48:25.693Z,95.60
2018-12-16T16:50:53.414Z,95.30
2018-12-16T16:53:21.003Z,95.20
2018-12-16T16:55:48.550Z,94.70
2018-12-16T16:58:16.107Z,94.60
2018-12-16T17:00:43.747Z,94.70
2018-12-16T17:03:11.286Z,94.50
2018-12-16T17:05:38.943Z,94.30
2018-12-16T17:08:06.526Z,94.10
2018-12-16T17:10:34.452Z,94.20
2018-12-16T17:13:02.726Z,94.40
2018-12-16T17:15:30.314Z,94.30
2018-12-16T17:17:58.270Z,94.50
2018-12-16T17:20:27.905Z,94.40
2018-12-16T17:22:55.499Z,94.00
2018-12-16T17:25:23.074Z,94.00
2018-12-16T17:28:23.325Z,94.00
2018-12-16T17:30:51.227Z,94.20
2018-12-16T17:33:18.906Z,93.90
2018-12-16T17:35:46.569Z,93.60
2018-12-16T17:38:14.283Z,93.70
2018-12-16T17:40:42.173Z,93.70
2018-12-16T17:43:09.855Z,93.60
2018-12-16T17:45:37.446Z,93.70
2018-12-16T17:48:05.095Z,93.90
2018-12-16T17:50:32.674Z,93.60
2018-12-16T17:53:00.253Z,93.70
2018-12-16T17:55:27.871Z,93.60
2018-12-16T17:57:55.709Z,93.90
2018-12-16T18:00:23.545Z,93.60
2018-12-16T18:02:51.174Z,93.20
2018-12-16T18:05:18.786Z,93.40
2018-12-16T18:07:46.394Z,93.30
2018-12-16T18:10:14.134Z,93.60
2018-12-16T18:12:41.874Z,93.50
2018-12-16T18:15:09.846Z,93.70
2018-12-16T18:17:38.106Z,93.90
2018-12-16T18:20:06.614Z,95.40
2018-12-16T18:22:34.122Z,95.60
2018-12-16T18:25:01.648Z,95.60
2018-12-16T18:27:29.366Z,95.30
2018-12-16T18:29:56.958Z,95.30
2018-12-16T18:32:24.607Z,94.60
2018-12-16T18:34:52.148Z,94.70
2018-12-16T18:37:19.770Z,94.60
2018-12-16T18:39:47.636Z,95.00
2018-12-16T18:42:15.644Z,95.80
2018-12-16T18:44:43.263Z,96.60
2018-12-16T18:47:10.997Z,96.80
2018-12-16T18:49:38.685Z,96.30
2018-12-16T18:52:06.401Z,96.00
2018-12-16T18:54:34.422Z,95.80
2018-12-16T18:57:07.160Z,95.70
2018-12-16T18:59:31.769Z,95.80
2018-12-16T19:01:59.407Z,95.80
2018-12-16T19:04:26.998Z,96.10
2018-12-16T19:06:54.849Z,96.20
2018-12-16T19:09:22.520Z,96.40
2018-12-16T19:11:50.180Z,96.60
2018-12-16T19:14:17.842Z,96.60
2018-12-16T19:16:45.436Z,96.60
2018-12-16T19:19:13.434Z,96.50
2018-12-16T19:21:41.116Z,96.50
2018-12-16T19:24:08.674Z,96.90
2018-12-16T19:26:36.325Z,97.20
2018-12-16T19:29:05.110Z,97.40
2018-12-16T19:31:32.727Z,97.90
2018-12-16T19:34:01.495Z,97.90
2018-12-16T19:36:29.339Z,97.70
2018-12-16T19:38:57.192Z,97.70
2018-12-16T19:41:24.861Z,97.80
2018-12-16T19:43:52.541Z,97.70
2018-12-16T19:46:20.229Z,97.70
2018-12-16T19:48:47.812Z,97.70
2018-12-16T19:51:15.413Z,97.40
2018-12-16T19:53:42.907Z,97.50
2018-12-16T19:56:10.555Z,97.30
2018-12-16T19:58:38.266Z,97.30
2018-12-16T20:01:05.972Z,97.30
2018-12-16T20:03:36.938Z,97.30
2018-12-16T20:06:10.406Z,97.20
2018-12-16T20:08:37.949Z,97.40
2018-12-16T20:11:05.515Z,97.40
2018-12-16T20:13:33.126Z,97.20
2018-12-16T20:16:01.620Z,97.20
2018-12-16T20:18:29.459Z,97.40
2018-12-16T20:20:57.080Z,97.20
2018-12-16T20:23:24.845Z,97.40
2018-12-16T20:25:52.368Z,97.40
2018-12-16T20:28:21.363Z,97.60
2018-12-16T20:30:48.846Z,97.60
2018-12-16T20:33:16.450Z,97.40
2018-12-16T20:35:44.327Z,97.20
2018-12-16T20:38:12.341Z,97.40
2018-12-16T20:40:39.924Z,97.50
2018-12-16T20:43:07.643Z,97.40
2018-12-16T20:45:35.160Z,97.30
2018-12-16T20:48:02.882Z,97.10
2018-12-16T20:50:30.443Z,96.70
2018-12-16T20:52:58.015Z,96.80
2018-12-16T20:55:25.616Z,96.90
2018-12-16T20:57:53.168Z,96.90
2018-12-16T21:00:21.043Z,96.80
2018-12-16T21:02:48.940Z,96.80
2018-12-16T21:05:16.555Z,96.80
2018-12-16T21:07:44.346Z,96.90
2018-12-16T21:10:12.298Z,96.90
2018-12-16T21:12:45.782Z,97.00
2018-12-16T21:15:19.216Z,97.00
2018-12-16T21:17:52.751Z,96.80
2018-12-16T21:20:20.666Z,96.80
2018-12-16T21:22:48.190Z,97.00
2018-12-16T21:25:15.842Z,96.90
2018-12-16T21:27:43.512Z,97.00
2018-12-16T21:30:11.278Z,97.10
2018-12-16T21:32:40.469Z,97.20
2018-12-16T21:35:08.302Z,97.30
2018-12-16T21:37:36.517Z,96.90
2018-12-16T21:40:04.597Z,96.60
2018-12-16T21:42:32.259Z,96.40
2018-12-16T21:44:59.878Z,96.10
2018-12-16T21:47:27.421Z,96.20
2018-12-16T21:49:54.968Z,96.20
2018-12-16T21:52:22.884Z,96.10
2018-12-16T21:54:50.451Z,96.10
2018-12-16T21:57:17.992Z,96.10
2018-12-16T21:59:45.938Z,96.00
2018-12-16T22:02:13.581Z,96.10
2018-12-16T22:04:41.242Z,95.80
2018-12-16T22:07:08.953Z,96.00
2018-12-16T22:09:36.474Z,96.10
2018-12-16T22:12:04.137Z,96.20
2018-12-16T22:14:31.693Z,96.00
2018-12-16T22:16:59.166Z,96.30
2018-12-16T22:19:26.923Z,96.60
2018-12-16T22:21:54.420Z,96.40
2018-12-16T22:24:21.990Z,96.70
2018-12-16T22:26:49.582Z,96.70
2018-12-16T22:29:17.227Z,96.70
2018-12-16T22:31:44.797Z,96.70
2018-12-16T22:34:12.434Z,97.20
2018-12-16T22:36:40.135Z,97.40
2018-12-16T22:39:07.862Z,97.40
2018-12-16T22:41:36.712Z,97.20
2018-12-16T22:44:04.629Z,97.30
2018-12-16T22:46:33.127Z,97.40
2018-12-16T22:49:00.773Z,97.50
2018-12-16T22:51:28.569Z,97.40
2018-12-16T22:53:56.206Z,97.20
2018-12-16T22:56:23.875Z,97.20
2018-12-16T22:58:54.546Z,96.70
2018-12-16T23:01:21.552Z,96.40
2018-12-16T23:03:49.183Z,96.40
2018-12-16T23:06:17.374Z,96.30
2018-12-16T23:08:45.284Z,96.50
2018-12-16T23:11:13.237Z,96.70
2018-12-16T23:13:40.905Z,96.80
2018-12-16T23:16:08.687Z,96.80
2018-12-16T23:18:36.467Z,97.20
2018-12-16T23:21:04.296Z,97.20
2018-12-16T23:23:31.886Z,97.20
2018-12-16T23:25:59.720Z,96.80
2018-12-16T23:28:27.567Z,96.60
2018-12-16T23:30:55.039Z,96.30
2018-12-16T23:33:22.602Z,96.30
2018-12-16T23:35:50.203Z,96.20
2018-12-16T23:38:18.020Z,96.30
2018-12-16T23:40:45.717Z,96.20
2018-12-16T23:43:13.202Z,96.30
2018-12-16T23:45:40.764Z,96.90
2018-12-16T23:48:08.423Z,96.90
2018-12-16T23:50:35.982Z,97.10
2018-12-16T23:53:03.910Z,97.30
2018-12-16T23:55:31.456Z,97.40
2018-12-16T23:58:20.060Z,97.40
